createdAt,value
2022-08-02T00:01:25.505Z,21.26
2022-08-02T00:03:59.158Z,21.23
2022-08-02T00:06:27.297Z,21.17
2022-08-02T00:08:55.229Z,21.13
2022-08-02T00:11:23.452Z,21.13
2022-08-02T00:13:51.779Z,21.14
2022-08-02T00:16:20.116Z,21.20
2022-08-02T00:18:55.026Z,21.25
2022-08-02T00:21:22.933Z,21.25
2022-08-02T00:24:29.383Z,21.13
2022-08-02T00:26:39.301Z,21.03
2022-08-02T00:29:07.321Z,21.03
2022-08-02T00:31:35.361Z,21.08
2022-08-02T00:34:29.255Z,21.22
2022-08-02T00:36:52.770Z,21.25
2022-08-02T00:39:34.390Z,21.33
2022-08-02T00:42:04.055Z,21.36
2022-08-02T00:44:34.897Z,21.34
2022-08-02T00:47:04.741Z,21.36
2022-08-02T00:49:34.172Z,21.27
2022-08-02T00:52:02.564Z,21.20
2022-08-02T00:54:31.594Z,21.16
2022-08-02T00:57:00.996Z,21.19
2022-08-02T00:59:32.016Z,21.10
2022-08-02T01:02:00.061Z,21.16
2022-08-02T01:04:30.365Z,20.97
2022-08-02T01:07:13.440Z,20.87
2022-08-02T01:09:43.293Z,20.73
2022-08-02T01:12:12.918Z,20.64
2022-08-02T01:14:44.083Z,20.60
2022-08-02T01:17:18.814Z,20.59
2022-08-02T01:19:52.918Z,20.52
2022-08-02T01:23:02.095Z,20.58
2022-08-02T01:25:51.338Z,20.55
2022-08-02T01:28:31.668Z,20.61
2022-08-02T01:31:03.054Z,20.69
2022-08-02T01:33:38.262Z,20.63
2022-08-02T01:36:07.680Z,20.49
2022-08-02T01:38:39.403Z,20.42
2022-08-02T01:41:09.474Z,20.43
2022-08-02T01:43:41.589Z,20.42
2022-08-02T01:46:10.247Z,20.36
2022-08-02T01:48:38.353Z,20.36
2022-08-02T01:51:07.069Z,20.31
2022-08-02T01:53:36.608Z,20.23
2022-08-02T01:56:05.158Z,20.19
2022-08-02T01:58:36.972Z,20.20
2022-08-02T02:01:07.868Z,20.16
2022-08-02T02:03:41.914Z,20.16
2022-08-02T02:06:13.168Z,20.22
2022-08-02T02:08:44.040Z,20.27
2022-08-02T02:12:11.940Z,20.34
2022-08-02T02:14:04.221Z,20.44
2022-08-02T02:16:36.619Z,20.46
2022-08-02T02:19:04.981Z,20.50
2022-08-02T02:21:35.648Z,20.54
2022-08-02T02:24:05.828Z,20.58
2022-08-02T02:26:37.822Z,20.62
2022-08-02T02:29:12.479Z,20.60
2022-08-02T02:31:44.845Z,20.66
2022-08-02T02:34:16.265Z,20.64
2022-08-02T02:36:52.419Z,20.63
2022-08-02T02:39:22.975Z,20.58
2022-08-02T02:41:54.751Z,20.59
2022-08-02T02:44:24.156Z,20.64
2022-08-02T02:46:55.270Z,20.62
2022-08-02T02:49:24.643Z,20.61
2022-08-02T02:51:53.510Z,20.60
2022-08-02T02:54:31.970Z,20.59
2022-08-02T02:57:03.501Z,20.53
2022-08-02T02:59:31.862Z,20.49
2022-08-02T03:02:03.956Z,20.47
2022-08-02T03:04:55.443Z,20.42
2022-08-02T03:07:20.721Z,20.40
2022-08-02T03:09:53.807Z,20.33
2022-08-02T03:12:31.761Z,20.08
2022-08-02T03:15:01.195Z,19.87
2022-08-02T03:17:40.432Z,19.48
2022-08-02T03:20:12.305Z,19.38
2022-08-02T03:22:40.602Z,19.25
2022-08-02T03:25:10.317Z,19.16
2022-08-02T03:27:38.547Z,19.07
2022-08-02T03:30:08.871Z,19.02
2022-08-02T03:32:37.973Z,18.97
2022-08-02T03:35:09.551Z,18.98
2022-08-02T03:37:38.572Z,18.89
2022-08-02T03:40:09.129Z,18.86
2022-08-02T03:42:37.115Z,18.91
2022-08-02T03:45:09.086Z,19.00
2022-08-02T03:47:37.956Z,19.06
2022-08-02T03:50:09.244Z,19.15
2022-08-02T03:52:37.950Z,19.26
2022-08-02T03:55:08.057Z,19.33
2022-08-02T03:57:38.780Z,19.30
2022-08-02T04:00:13.002Z,19.10
2022-08-02T04:02:43.771Z,19.04
2022-08-02T04:05:13.457Z,19.01
2022-08-02T04:08:33.199Z,19.02
2022-08-02T04:10:29.874Z,18.96
2022-08-02T04:12:58.348Z,18.98
2022-08-02T04:15:26.630Z,18.97
2022-08-02T04:17:57.660Z,19.03
2022-08-02T04:20:30.011Z,18.87
2022-08-02T04:23:00.101Z,18.85
2022-08-02T04:25:35.471Z,18.84
2022-08-02T04:28:17.482Z,18.87
2022-08-02T04:30:47.559Z,18.76
2022-08-02T04:33:15.876Z,18.69
2022-08-02T04:35:45.675Z,18.66
2022-08-02T04:38:15.052Z,18.60
2022-08-02T04:40:52.369Z,18.66
2022-08-02T04:43:21.779Z,18.74
2022-08-02T04:45:51.469Z,18.87
2022-08-02T04:48:20.855Z,19.01
2022-08-02T04:50:51.963Z,19.02
2022-08-02T04:53:20.094Z,19.01
2022-08-02T04:55:48.443Z,19.10
2022-08-02T04:58:39.535Z,19.21
2022-08-02T05:01:07.825Z,19.31
2022-08-02T05:03:38.322Z,19.41
2022-08-02T05:06:19.144Z,19.54
2022-08-02T05:08:52.889Z,19.64
2022-08-02T05:11:21.421Z,19.73
2022-08-02T05:13:58.755Z,19.78
2022-08-02T05:16:31.317Z,19.85
2022-08-02T05:19:00.319Z,19.92
2022-08-02T05:21:32.485Z,19.94
2022-08-02T05:24:00.384Z,19.93
2022-08-02T05:26:28.266Z,19.89
2022-08-02T05:28:56.150Z,19.84
2022-08-02T05:31:24.145Z,19.84
2022-08-02T05:33:52.395Z,19.86
2022-08-02T05:36:21.591Z,19.82
2022-08-02T05:38:53.002Z,19.83
2022-08-02T05:41:32.768Z,19.88
2022-08-02T05:44:05.360Z,19.94
2022-08-02T05:46:33.262Z,20.00
2022-08-02T05:49:01.535Z,20.04
2022-08-02T05:51:38.847Z,20.12
2022-08-02T05:54:14.324Z,20.20
2022-08-02T05:56:48.122Z,20.25
2022-08-02T05:59:26.506Z,20.34
2022-08-02T06:01:57.923Z,20.46
2022-08-02T06:04:38.878Z,20.54
2022-08-02T06:07:08.308Z,20.64
2022-08-02T06:09:39.906Z,20.65
2022-08-02T06:12:11.374Z,20.66
2022-08-02T06:14:39.639Z,20.74
2022-08-02T06:17:11.019Z,20.85
2022-08-02T06:19:51.505Z,20.95
2022-08-02T06:22:29.913Z,20.95
2022-08-02T06:25:03.922Z,21.02
2022-08-02T06:27:32.074Z,21.01
2022-08-02T06:30:00.325Z,21.06
2022-08-02T06:32:28.528Z,20.99
2022-08-02T06:34:59.698Z,20.96
2022-08-02T06:37:29.147Z,21.04
2022-08-02T06:40:03.808Z,21.09
2022-08-02T06:42:41.823Z,21.13
2022-08-02T06:45:11.370Z,21.12
2022-08-02T06:47:39.290Z,21.05
2022-08-02T06:50:07.902Z,21.11
2022-08-02T06:52:36.226Z,21.15
2022-08-02T06:55:08.968Z,21.14
2022-08-02T06:57:41.278Z,21.15
2022-08-02T07:00:10.614Z,21.23
2022-08-02T07:02:39.776Z,21.27
2022-08-02T07:05:08.664Z,21.31
2022-08-02T07:07:37.026Z,21.37
2022-08-02T07:10:05.712Z,21.46
2022-08-02T07:12:34.839Z,21.54
2022-08-02T07:15:06.996Z,21.61
2022-08-02T07:17:35.603Z,21.71
2022-08-02T07:20:04.508Z,21.83
2022-08-02T07:22:32.710Z,21.93
2022-08-02T07:25:01.558Z,22.07
2022-08-02T07:27:30.171Z,22.22
2022-08-02T07:30:08.316Z,22.35
2022-08-02T07:32:37.696Z,22.35
2022-08-02T07:35:07.687Z,22.50
2022-08-02T07:37:53.173Z,22.66
2022-08-02T07:40:25.120Z,22.84
2022-08-02T07:42:57.862Z,23.06
2022-08-02T07:45:31.334Z,23.21
2022-08-02T07:48:00.814Z,23.24
2022-08-02T07:50:30.049Z,23.22
2022-08-02T07:52:58.383Z,23.33
2022-08-02T07:55:39.671Z,23.46
2022-08-02T07:58:12.173Z,23.53
2022-08-02T08:00:40.928Z,23.69
2022-08-02T08:03:16.258Z,23.94
2022-08-02T08:05:44.749Z,23.87
2022-08-02T08:08:17.570Z,24.10
2022-08-02T08:10:46.106Z,24.21
2022-08-02T08:13:14.117Z,24.24
2022-08-02T08:15:42.100Z,24.44
2022-08-02T08:18:21.905Z,24.68
2022-08-02T08:20:53.065Z,24.92
2022-08-02T08:23:21.480Z,25.10
2022-08-02T08:25:52.024Z,25.30
2022-08-02T08:28:20.322Z,25.45
2022-08-02T08:30:48.506Z,25.31
2022-08-02T08:33:18.331Z,25.46
2022-08-02T08:35:47.982Z,25.70
2022-08-02T08:38:16.676Z,25.90
2022-08-02T08:40:44.985Z,26.03
2022-08-02T08:43:14.212Z,26.13
2022-08-02T08:45:42.973Z,26.29
2022-08-02T08:48:13.940Z,26.49
2022-08-02T08:50:49.602Z,26.60
2022-08-02T08:53:18.105Z,26.65
2022-08-02T08:55:49.171Z,26.74
2022-08-02T08:58:17.076Z,26.96
2022-08-02T09:00:45.337Z,26.72
2022-08-02T09:03:13.261Z,26.80
2022-08-02T09:05:43.511Z,26.85
2022-08-02T09:08:17.145Z,27.00
2022-08-02T09:10:47.416Z,27.00
2022-08-02T09:13:38.559Z,26.83
2022-08-02T09:16:13.028Z,26.91
2022-08-02T09:18:45.960Z,27.08
2022-08-02T09:21:16.173Z,27.13
2022-08-02T09:23:47.256Z,27.22
2022-08-02T09:26:16.635Z,27.17
2022-08-02T09:28:48.385Z,27.10
2022-08-02T09:31:18.496Z,27.28
2022-08-02T09:33:47.864Z,27.48
2022-08-02T09:36:17.449Z,27.62
2022-08-02T09:38:57.513Z,27.84
2022-08-02T09:41:27.327Z,28.03
2022-08-02T09:44:05.589Z,28.00
2022-08-02T09:46:38.889Z,27.89
2022-08-02T09:49:09.950Z,27.88
2022-08-02T09:51:39.971Z,27.88
2022-08-02T09:54:12.029Z,28.01
2022-08-02T09:56:49.710Z,27.91
2022-08-02T09:59:19.058Z,27.77
2022-08-02T10:01:51.183Z,28.02
2022-08-02T10:04:30.645Z,28.33
2022-08-02T10:07:04.437Z,28.22
2022-08-02T10:09:47.787Z,28.36
2022-08-02T10:12:18.506Z,28.38
2022-08-02T10:14:47.293Z,28.54
2022-08-02T10:17:17.684Z,28.81
2022-08-02T10:20:03.269Z,28.99
2022-08-02T10:22:34.680Z,29.23
2022-08-02T10:25:05.506Z,29.17
2022-08-02T10:27:49.239Z,29.34
2022-08-02T10:30:21.739Z,29.19
2022-08-02T10:32:50.449Z,29.02
2022-08-02T10:35:25.232Z,28.93
2022-08-02T10:37:57.438Z,29.10
2022-08-02T10:40:27.436Z,29.29
2022-08-02T10:43:00.629Z,29.28
2022-08-02T10:45:29.536Z,29.16
2022-08-02T10:48:06.122Z,29.14
2022-08-02T10:50:56.074Z,29.10
2022-08-02T10:53:25.987Z,29.09
2022-08-02T10:55:56.984Z,29.21
2022-08-02T10:58:29.576Z,29.37
2022-08-02T11:00:59.113Z,29.32
2022-08-02T11:03:40.095Z,29.43
2022-08-02T11:06:09.677Z,29.70
2022-08-02T11:09:32.375Z,29.77
2022-08-02T11:12:04.463Z,29.65
2022-08-02T11:14:33.706Z,29.90
2022-08-02T11:17:15.627Z,29.90
2022-08-02T11:20:16.639Z,29.92
2022-08-02T11:22:46.206Z,29.89
2022-08-02T11:26:00.923Z,30.02
2022-08-02T11:28:25.961Z,30.26
2022-08-02T11:31:01.349Z,30.49
2022-08-02T11:33:34.174Z,30.73
2022-08-02T11:36:03.573Z,30.69
2022-08-02T11:38:31.826Z,30.89
2022-08-02T11:41:00.018Z,30.97
2022-08-02T11:43:35.848Z,31.22
2022-08-02T11:46:04.715Z,31.36
2022-08-02T11:48:34.857Z,31.46
2022-08-02T11:51:07.664Z,31.51
2022-08-02T11:53:46.598Z,31.57
2022-08-02T11:56:24.111Z,31.57
2022-08-02T11:59:05.654Z,31.49
2022-08-02T12:01:44.837Z,31.47
2022-08-02T12:04:18.480Z,31.78
2022-08-02T12:06:56.876Z,31.56
2022-08-02T12:09:25.237Z,31.60
2022-08-02T12:11:53.326Z,31.46
2022-08-02T12:14:23.241Z,31.28
2022-08-02T12:17:09.323Z,31.43
2022-08-02T12:19:37.917Z,31.41
2022-08-02T12:22:18.193Z,31.52
2022-08-02T12:24:48.591Z,31.72
2022-08-02T12:27:43.808Z,31.96
2022-08-02T12:30:15.941Z,32.05
2022-08-02T12:32:44.793Z,32.12
2022-08-02T12:35:14.889Z,32.24
2022-08-02T12:37:55.380Z,32.37
2022-08-02T12:40:32.793Z,32.04
2022-08-02T12:43:02.342Z,32.18
2022-08-02T12:45:39.170Z,32.37
2022-08-02T12:48:11.022Z,32.51
2022-08-02T12:50:39.912Z,32.67
2022-08-02T12:53:09.536Z,32.54
2022-08-02T12:55:59.789Z,32.13
2022-08-02T12:58:30.951Z,32.31
2022-08-02T13:01:05.024Z,32.45
2022-08-02T13:04:12.017Z,32.43
2022-08-02T13:09:14.781Z,32.15
2022-08-02T13:11:43.956Z,31.93
2022-08-02T13:14:13.132Z,31.92
2022-08-02T13:16:43.558Z,31.85
2022-08-02T13:19:11.428Z,31.96
2022-08-02T13:21:41.693Z,31.93
2022-08-02T13:24:39.635Z,31.87
2022-08-02T13:27:09.742Z,31.91
2022-08-02T13:29:38.318Z,31.90
2022-08-02T13:32:07.753Z,31.98
2022-08-02T13:34:35.922Z,31.91
2022-08-02T13:37:04.482Z,31.97
2022-08-02T13:39:32.465Z,31.88
2022-08-02T13:42:00.431Z,31.68
2022-08-02T13:44:28.340Z,31.71
2022-08-02T13:46:56.400Z,31.76
2022-08-02T13:49:33.532Z,31.89
2022-08-02T13:52:14.743Z,31.64
2022-08-02T13:54:43.074Z,31.76
2022-08-02T13:57:12.869Z,31.88
2022-08-02T13:59:57.285Z,32.00
2022-08-02T14:02:28.159Z,32.03
2022-08-02T14:04:58.015Z,31.96
2022-08-02T14:07:25.905Z,31.83
2022-08-02T14:09:53.889Z,31.52
2022-08-02T14:12:21.748Z,31.50
2022-08-02T14:14:51.309Z,31.40
2022-08-02T14:17:19.802Z,31.59
2022-08-02T14:19:47.821Z,31.67
2022-08-02T14:22:17.119Z,31.54
2022-08-02T14:24:45.338Z,31.55
2022-08-02T14:27:13.596Z,31.54
2022-08-02T14:29:41.555Z,31.53
2022-08-02T14:32:10.015Z,31.54
2022-08-02T14:34:38.455Z,31.45
2022-08-02T14:37:06.283Z,31.54
2022-08-02T14:39:43.117Z,31.44
2022-08-02T14:42:23.455Z,31.28
2022-08-02T14:44:51.434Z,31.46
2022-08-02T14:47:19.496Z,31.59
2022-08-02T14:49:50.318Z,31.81
2022-08-02T14:52:18.871Z,31.75
2022-08-02T14:54:48.379Z,31.89
2022-08-02T14:57:16.751Z,31.94
2022-08-02T14:59:47.675Z,32.11
2022-08-02T15:02:16.173Z,32.13
2022-08-02T15:04:44.393Z,32.06
2022-08-02T15:07:15.418Z,32.01
2022-08-02T15:09:43.399Z,31.79
2022-08-02T15:12:13.409Z,31.55
2022-08-02T15:14:42.140Z,31.46
2022-08-02T15:17:10.940Z,31.34
2022-08-02T15:19:57.757Z,31.35
2022-08-02T15:22:28.935Z,31.41
2022-08-02T15:24:56.993Z,31.54
2022-08-02T15:27:26.308Z,31.63
2022-08-02T15:30:00.040Z,31.76
2022-08-02T15:32:28.361Z,31.73
2022-08-02T15:34:56.205Z,31.60
2022-08-02T15:37:24.197Z,31.74
2022-08-02T15:39:53.310Z,31.83
2022-08-02T15:42:21.315Z,31.90
2022-08-02T15:45:00.599Z,31.71
2022-08-02T15:47:28.571Z,31.72
2022-08-02T15:49:56.486Z,31.61
2022-08-02T15:52:29.058Z,31.59
2022-08-02T15:55:06.731Z,31.65
2022-08-02T15:57:36.305Z,31.61
2022-08-02T16:00:18.126Z,31.65
2022-08-02T16:02:46.949Z,31.52
2022-08-02T16:05:17.935Z,31.59
2022-08-02T16:07:46.603Z,31.59
2022-08-02T16:10:15.024Z,31.49
2022-08-02T16:12:43.311Z,31.48
2022-08-02T16:15:14.822Z,31.41
2022-08-02T16:17:49.031Z,31.34
2022-08-02T16:20:22.252Z,31.33
2022-08-02T16:22:50.224Z,31.29
2022-08-02T16:25:18.118Z,31.30
2022-08-02T16:28:06.248Z,31.30
2022-08-02T16:30:37.821Z,31.32
2022-08-02T16:33:05.836Z,31.24
2022-08-02T16:35:34.903Z,31.40
2022-08-02T16:38:02.834Z,31.13
2022-08-02T16:40:32.562Z,31.08
2022-08-02T16:43:00.495Z,31.03
2022-08-02T16:45:29.185Z,31.02
2022-08-02T16:48:05.395Z,30.94
2022-08-02T16:50:33.984Z,30.91
2022-08-02T16:53:07.447Z,30.81
2022-08-02T16:55:35.742Z,30.86
2022-08-02T16:58:03.653Z,30.74
2022-08-02T17:00:31.721Z,30.74
2022-08-02T17:03:13.283Z,30.54
2022-08-02T17:05:56.425Z,30.51
2022-08-02T17:08:32.139Z,30.51
2022-08-02T17:11:03.667Z,30.56
2022-08-02T17:13:34.314Z,30.55
2022-08-02T17:16:25.718Z,30.53
2022-08-02T17:18:56.350Z,30.35
2022-08-02T17:21:24.580Z,30.33
2022-08-02T17:24:05.358Z,30.22
2022-08-02T17:26:36.231Z,30.11
2022-08-02T17:29:15.072Z,30.13
2022-08-02T17:32:05.130Z,30.06
2022-08-02T17:34:37.281Z,30.01
2022-08-02T17:37:06.459Z,29.87
2022-08-02T17:39:43.210Z,29.83
2022-08-02T17:42:20.097Z,29.74
2022-08-02T17:44:51.066Z,29.75
2022-08-02T17:47:19.500Z,29.61
2022-08-02T17:49:49.185Z,29.53
2022-08-02T17:52:50.272Z,29.45
2022-08-02T17:55:06.401Z,29.45
2022-08-02T17:57:56.050Z,29.39
2022-08-02T18:00:22.566Z,29.41
2022-08-02T18:02:55.158Z,29.30
2022-08-02T18:05:38.898Z,29.18
2022-08-02T18:08:08.555Z,29.11
2022-08-02T18:10:36.519Z,29.13
2022-08-02T18:13:05.383Z,28.92
2022-08-02T18:15:33.545Z,28.77
2022-08-02T18:18:01.565Z,28.69
2022-08-02T18:20:30.986Z,28.60
2022-08-02T18:22:59.183Z,28.55
2022-08-02T18:25:37.729Z,28.41
2022-08-02T18:28:15.127Z,28.36
2022-08-02T18:30:43.350Z,28.32
2022-08-02T18:33:55.501Z,28.26
2022-08-02T18:36:01.160Z,28.17
2022-08-02T18:38:31.156Z,28.09
2022-08-02T18:41:02.790Z,28.06
2022-08-02T18:43:31.078Z,28.00
2022-08-02T18:46:07.276Z,27.96
2022-08-02T18:48:46.555Z,27.90
2022-08-02T18:51:19.079Z,27.82
2022-08-02T18:53:51.284Z,27.75
2022-08-02T18:56:24.710Z,27.69
2022-08-02T18:58:53.080Z,27.62
2022-08-02T19:01:32.065Z,27.48
2022-08-02T19:04:01.543Z,27.39
2022-08-02T19:06:31.505Z,27.35
2022-08-02T19:09:06.039Z,27.26
2022-08-02T19:11:47.405Z,27.21
2022-08-02T19:14:24.233Z,27.13
2022-08-02T19:16:56.660Z,27.04
2022-08-02T19:19:29.005Z,27.00
2022-08-02T19:22:16.703Z,26.97
2022-08-02T19:24:47.806Z,26.92
2022-08-02T19:27:20.683Z,26.90
2022-08-02T19:29:53.811Z,26.76
2022-08-02T19:32:42.887Z,26.71
2022-08-02T19:38:10.059Z,26.63
2022-08-02T19:40:39.072Z,26.59
2022-08-02T19:44:23.900Z,26.54
2022-08-02T19:46:02.731Z,26.44
2022-08-02T19:48:31.795Z,26.42
2022-08-02T19:51:01.868Z,26.41
2022-08-02T19:53:48.705Z,26.37
2022-08-02T19:56:25.494Z,26.33
2022-08-02T19:58:58.091Z,26.22
2022-08-02T20:01:38.908Z,26.19
2022-08-02T20:04:22.993Z,26.13
2022-08-02T20:06:52.362Z,25.89
2022-08-02T20:09:23.505Z,25.71
2022-08-02T20:12:01.763Z,25.63
2022-08-02T20:14:30.072Z,25.52
2022-08-02T20:16:59.314Z,25.49
2022-08-02T20:19:29.615Z,25.36
2022-08-02T20:22:02.585Z,25.31
2022-08-02T20:24:32.376Z,25.21
2022-08-02T20:27:00.915Z,25.14
2022-08-02T20:29:43.444Z,25.12
2022-08-02T20:32:21.809Z,25.14
2022-08-02T20:34:52.896Z,25.16
2022-08-02T20:38:00.339Z,25.16
2022-08-02T20:40:16.880Z,25.00
2022-08-02T20:42:48.144Z,24.86
2022-08-02T20:45:17.049Z,24.73
2022-08-02T20:47:49.803Z,24.63
2022-08-02T20:50:37.023Z,24.50
2022-08-02T20:53:06.312Z,24.38
2022-08-02T20:55:36.786Z,24.24
2022-08-02T20:58:05.770Z,24.27
2022-08-02T21:00:40.081Z,24.14
2022-08-02T21:03:10.181Z,24.10
2022-08-02T21:05:54.038Z,24.04
2022-08-02T21:08:24.216Z,24.12
2022-08-02T21:10:56.953Z,24.19
2022-08-02T21:13:28.680Z,24.28
2022-08-02T21:16:00.388Z,24.19
2022-08-02T21:18:40.232Z,24.16
2022-08-02T21:21:09.787Z,24.17
2022-08-02T21:23:48.677Z,24.20
2022-08-02T21:26:31.010Z,24.19
2022-08-02T21:29:03.912Z,24.20
2022-08-02T21:31:35.713Z,24.17
2022-08-02T21:34:19.294Z,24.13
2022-08-02T21:36:50.797Z,24.09
2022-08-02T21:39:19.329Z,24.09
2022-08-02T21:41:50.130Z,24.13
2022-08-02T21:44:21.618Z,24.08
2022-08-02T21:46:51.740Z,24.04
2022-08-02T21:49:40.960Z,24.00
2022-08-02T21:52:10.550Z,23.83
2022-08-02T21:54:39.792Z,23.82
2022-08-02T21:57:15.811Z,23.80
2022-08-02T21:59:47.154Z,23.79
2022-08-02T22:02:15.873Z,23.72
2022-08-02T22:04:47.893Z,23.74
2022-08-02T22:07:17.275Z,23.74
2022-08-02T22:09:53.343Z,23.71
2022-08-02T22:12:26.318Z,23.70
2022-08-02T22:14:56.711Z,23.68
2022-08-02T22:17:46.829Z,23.65
2022-08-02T22:20:18.355Z,23.61
2022-08-02T22:22:54.301Z,23.55
2022-08-02T22:25:31.297Z,23.55
2022-08-02T22:28:38.685Z,23.51
2022-08-02T22:30:56.970Z,23.37
2022-08-02T22:33:46.929Z,23.31
2022-08-02T22:36:29.050Z,23.27
2022-08-02T22:38:59.130Z,23.27
2022-08-02T22:42:01.212Z,23.29
2022-08-02T22:44:18.676Z,23.22
2022-08-02T22:46:47.105Z,23.06
2022-08-02T22:49:38.102Z,23.01
2022-08-02T22:52:06.298Z,23.06
2022-08-02T22:54:34.446Z,23.01
2022-08-02T22:57:02.354Z,23.02
2022-08-02T22:59:07.695Z,26.64
2022-08-02T22:59:39.835Z,23.00
2022-08-02T23:02:08.670Z,22.91
2022-08-02T23:04:37.307Z,22.89
2022-08-02T23:07:19.565Z,22.87
2022-08-02T23:09:47.646Z,22.87
2022-08-02T23:12:19.295Z,22.88
2022-08-02T23:14:49.405Z,22.91
2022-08-02T23:17:34.657Z,22.88
2022-08-02T23:20:14.734Z,22.90
2022-08-02T23:22:43.086Z,22.90
2022-08-02T23:25:11.289Z,22.90
2022-08-02T23:27:39.164Z,22.88
2022-08-02T23:30:19.902Z,22.82
2022-08-02T23:32:48.004Z,22.84
2022-08-02T23:35:17.061Z,22.76
2022-08-02T23:37:59.720Z,22.70
2022-08-02T23:40:39.550Z,22.68
2022-08-02T23:43:13.777Z,22.67
2022-08-02T23:45:45.724Z,22.63
2022-08-02T23:48:13.871Z,22.59
2022-08-02T23:50:42.096Z,22.60
2022-08-02T23:53:12.038Z,22.60
2022-08-02T23:55:40.408Z,22.65
2022-08-02T23:58:08.554Z,22.56
